Portada
METAR-TAF:

METAR-TAF

Aeroports :

Mae Hong Son, Tailàndia

latitud: 19-18N, longitud: 097-50E, altitud: 267 m

Observació

L'informe es va fer fa 44 minuts, a les 12:00 UTC
Temperatura 19°C
Humitat 52%
Pressió 1017 hPa
Visibilitat 10 km o més
sense núvols per sota de 1500 mi sense presència de cumulonimbus.

METAR: VTCH 081200Z /////KT CAVOK 19/09 Q1017

Hora: 19:44 (12:44 UTC)

Pronòstic

L'informe es va fer fa 1 hora i 44 minuts, a les 11:00 UTC
Pronòstic vàlid del 08 a les 12 UTC al 09 a les 12 UTC
Vent 5 kt del Nord-Est
Visibilitat 10 km o més
sense núvols per sota de 1500 mi sense presència de cumulonimbus.
Evolucionant progressivament
l' 08 a les 21 UTC al 08 a les 23 UTC
Visibilitat: 4000 m
boirina
Evolucionant progressivament
l' 09 a les 01 UTC al 09 a les 03 UTC
Visibilitat 10 km o més

TAF: VTCH 081100Z 0812/0912 05005KT CAVOK BECMG 0821/0823 4000 BR BECMG 0901/0903 9999 NSW

Observacions i pronòstics meteorològics de més de 4000 aeroports (METAR i TAF).

Les estacions disponibles són els punts grocs i vermells al mapa.

Posi el ratolí al punt desitjat per veure el nom de l'estació.

Feu clic per veure les observacions i els pronòstics meteorològics.

Per canviar el mapa: feu clic els botons verds amb una creu de color negre per apropar; al botó verd amb un guió per allunyar la imatge; o en les fletxes verdes per a mapes adjacents.


METAR-TAF: